sensor_id;sensor_type;location;lat;lon;timestamp;P1;durP1;ratioP1;P2;durP2;ratioP2
50393;SDS011;36308;46.312;25.288;2022-07-23T00:02:06;9.98;;;6.25;;
50393;SDS011;36308;46.312;25.288;2022-07-23T00:04:32;8.55;;;5.75;;
50393;SDS011;36308;46.312;25.288;2022-07-23T00:06:58;10.23;;;5.47;;
50393;SDS011;36308;46.312;25.288;2022-07-23T00:09:23;9.02;;;4.93;;
50393;SDS011;36308;46.312;25.288;2022-07-23T00:11:49;7.88;;;5.40;;
50393;SDS011;36308;46.312;25.288;2022-07-23T00:14:14;9.15;;;5.00;;
50393;SDS011;36308;46.312;25.288;2022-07-23T00:16:40;12.30;;;5.68;;
50393;SDS011;36308;46.312;25.288;2022-07-23T00:19:05;9.77;;;5.85;;
50393;SDS011;36308;46.312;25.288;2022-07-23T00:21:30;9.43;;;5.72;;
50393;SDS011;36308;46.312;25.288;2022-07-23T00:23:56;7.55;;;4.95;;
50393;SDS011;36308;46.312;25.288;2022-07-23T00:26:21;9.85;;;5.32;;
50393;SDS011;36308;46.312;25.288;2022-07-23T00:28:47;9.45;;;5.35;;
50393;SDS011;36308;46.312;25.288;2022-07-23T00:31:12;8.20;;;5.22;;
50393;SDS011;36308;46.312;25.288;2022-07-23T00:33:38;10.27;;;5.10;;
50393;SDS011;36308;46.312;25.288;2022-07-23T00:36:04;8.20;;;5.38;;
50393;SDS011;36308;46.312;25.288;2022-07-23T00:38:30;9.98;;;5.20;;
50393;SDS011;36308;46.312;25.288;2022-07-23T00:40:55;9.07;;;5.32;;
50393;SDS011;36308;46.312;25.288;2022-07-23T00:43:21;10.68;;;5.55;;
50393;SDS011;36308;46.312;25.288;2022-07-23T00:45:47;7.50;;;5.07;;
50393;SDS011;36308;46.312;25.288;2022-07-23T00:48:12;10.13;;;5.15;;
50393;SDS011;36308;46.312;25.288;2022-07-23T00:50:38;8.90;;;5.50;;
50393;SDS011;36308;46.312;25.288;2022-07-23T00:53:03;10.73;;;5.13;;
50393;SDS011;36308;46.312;25.288;2022-07-23T00:55:30;13.35;;;5.57;;
50393;SDS011;36308;46.312;25.288;2022-07-23T00:57:56;18.88;;;5.60;;
50393;SDS011;36308;46.312;25.288;2022-07-23T01:00:22;9.13;;;5.00;;
50393;SDS011;36308;46.312;25.288;2022-07-23T01:02:47;8.00;;;5.40;;
50393;SDS011;36308;46.312;25.288;2022-07-23T01:05:14;8.13;;;5.18;;
50393;SDS011;36308;46.312;25.288;2022-07-23T01:07:40;8.50;;;5.60;;
50393;SDS011;36308;46.312;25.288;2022-07-23T01:10:05;6.72;;;5.28;;
50393;SDS011;36308;46.312;25.288;2022-07-23T01:12:51;10.48;;;5.65;;
50393;SDS011;36308;46.312;25.288;2022-07-23T01:15:16;10.82;;;5.82;;
50393;SDS011;36308;46.312;25.288;2022-07-23T01:17:42;8.52;;;5.45;;
50393;SDS011;36308;46.312;25.288;2022-07-23T01:20:07;8.45;;;5.90;;
50393;SDS011;36308;46.312;25.288;2022-07-23T01:22:33;10.88;;;5.40;;
50393;SDS011;36308;46.312;25.288;2022-07-23T01:24:59;10.82;;;5.53;;
50393;SDS011;36308;46.312;25.288;2022-07-23T01:27:24;9.68;;;5.43;;
50393;SDS011;36308;46.312;25.288;2022-07-23T01:29:49;8.68;;;5.30;;
50393;SDS011;36308;46.312;25.288;2022-07-23T01:32:15;8.48;;;5.43;;
50393;SDS011;36308;46.312;25.288;2022-07-23T01:34:40;11.23;;;5.68;;
50393;SDS011;36308;46.312;25.288;2022-07-23T01:37:06;13.95;;;5.43;;
50393;SDS011;36308;46.312;25.288;2022-07-23T01:39:31;7.55;;;5.47;;
50393;SDS011;36308;46.312;25.288;2022-07-23T01:41:57;10.15;;;5.82;;
50393;SDS011;36308;46.312;25.288;2022-07-23T01:44:22;9.25;;;5.35;;
50393;SDS011;36308;46.312;25.288;2022-07-23T01:46:48;10.15;;;5.60;;
50393;SDS011;36308;46.312;25.288;2022-07-23T01:49:13;9.57;;;6.05;;
50393;SDS011;36308;46.312;25.288;2022-07-23T01:51:38;12.40;;;6.00;;
50393;SDS011;36308;46.312;25.288;2022-07-23T01:54:24;8.02;;;5.45;;
50393;SDS011;36308;46.312;25.288;2022-07-23T01:56:49;10.35;;;5.75;;
50393;SDS011;36308;46.312;25.288;2022-07-23T01:59:15;8.20;;;5.65;;
50393;SDS011;36308;46.312;25.288;2022-07-23T02:01:40;14.60;;;6.15;;
50393;SDS011;36308;46.312;25.288;2022-07-23T02:04:11;11.75;;;5.85;;
50393;SDS011;36308;46.312;25.288;2022-07-23T02:06:37;11.80;;;5.70;;
50393;SDS011;36308;46.312;25.288;2022-07-23T02:09:02;10.18;;;5.95;;
50393;SDS011;36308;46.312;25.288;2022-07-23T02:11:28;10.20;;;6.32;;
50393;SDS011;36308;46.312;25.288;2022-07-23T02:13:53;10.30;;;6.00;;
50393;SDS011;36308;46.312;25.288;2022-07-23T02:16:18;10.25;;;5.80;;
50393;SDS011;36308;46.312;25.288;2022-07-23T02:18:44;14.32;;;6.50;;
50393;SDS011;36308;46.312;25.288;2022-07-23T02:21:11;8.77;;;5.47;;
50393;SDS011;36308;46.312;25.288;2022-07-23T02:23:36;11.82;;;6.20;;
50393;SDS011;36308;46.312;25.288;2022-07-23T02:26:01;15.63;;;6.45;;
50393;SDS011;36308;46.312;25.288;2022-07-23T02:28:27;9.43;;;5.95;;
50393;SDS011;36308;46.312;25.288;2022-07-23T02:30:52;10.40;;;5.93;;
50393;SDS011;36308;46.312;25.288;2022-07-23T02:33:18;10.55;;;6.18;;
50393;SDS011;36308;46.312;25.288;2022-07-23T02:35:43;12.10;;;6.28;;
50393;SDS011;36308;46.312;25.288;2022-07-23T02:38:09;9.75;;;5.85;;
50393;SDS011;36308;46.312;25.288;2022-07-23T02:40:34;10.10;;;6.30;;
50393;SDS011;36308;46.312;25.288;2022-07-23T02:43:00;10.98;;;6.45;;
50393;SDS011;36308;46.312;25.288;2022-07-23T02:45:25;9.27;;;5.60;;
50393;SDS011;36308;46.312;25.288;2022-07-23T02:47:51;12.32;;;6.85;;
50393;SDS011;36308;46.312;25.288;2022-07-23T02:50:16;8.48;;;5.80;;
50393;SDS011;36308;46.312;25.288;2022-07-23T02:52:41;10.88;;;6.57;;
50393;SDS011;36308;46.312;25.288;2022-07-23T02:55:07;14.75;;;6.65;;
50393;SDS011;36308;46.312;25.288;2022-07-23T02:57:33;8.57;;;5.78;;
50393;SDS011;36308;46.312;25.288;2022-07-23T02:59:58;9.98;;;5.78;;
50393;SDS011;36308;46.312;25.288;2022-07-23T03:02:24;11.38;;;5.82;;
50393;SDS011;36308;46.312;25.288;2022-07-23T03:04:49;14.93;;;6.68;;
50393;SDS011;36308;46.312;25.288;2022-07-23T03:07:15;10.50;;;6.15;;
50393;SDS011;36308;46.312;25.288;2022-07-23T03:09:42;10.63;;;6.10;;
50393;SDS011;36308;46.312;25.288;2022-07-23T03:12:07;9.88;;;6.20;;
50393;SDS011;36308;46.312;25.288;2022-07-23T03:14:33;9.80;;;5.53;;
50393;SDS011;36308;46.312;25.288;2022-07-23T03:16:58;14.02;;;6.78;;
50393;SDS011;36308;46.312;25.288;2022-07-23T03:19:25;10.52;;;5.93;;
50393;SDS011;36308;46.312;25.288;2022-07-23T03:21:51;11.43;;;6.10;;
50393;SDS011;36308;46.312;25.288;2022-07-23T03:24:16;9.77;;;6.07;;
50393;SDS011;36308;46.312;25.288;2022-07-23T03:26:43;12.82;;;6.63;;
50393;SDS011;36308;46.312;25.288;2022-07-23T03:29:09;12.93;;;6.45;;
50393;SDS011;36308;46.312;25.288;2022-07-23T03:31:34;14.48;;;6.60;;
50393;SDS011;36308;46.312;25.288;2022-07-23T03:34:00;9.80;;;6.63;;
50393;SDS011;36308;46.312;25.288;2022-07-23T03:36:26;11.57;;;6.20;;
50393;SDS011;36308;46.312;25.288;2022-07-23T03:38:52;9.25;;;6.32;;
50393;SDS011;36308;46.312;25.288;2022-07-23T03:41:18;9.75;;;6.55;;
50393;SDS011;36308;46.312;25.288;2022-07-23T03:43:44;10.73;;;7.15;;
50393;SDS011;36308;46.312;25.288;2022-07-23T03:46:10;11.00;;;6.60;;
50393;SDS011;36308;46.312;25.288;2022-07-23T03:48:36;9.32;;;6.65;;
50393;SDS011;36308;46.312;25.288;2022-07-23T03:51:01;10.18;;;7.15;;
50393;SDS011;36308;46.312;25.288;2022-07-23T03:53:27;12.57;;;6.53;;
50393;SDS011;36308;46.312;25.288;2022-07-23T03:55:52;10.20;;;6.63;;
50393;SDS011;36308;46.312;25.288;2022-07-23T03:58:18;11.15;;;6.82;;
50393;SDS011;36308;46.312;25.288;2022-07-23T04:00:43;10.75;;;6.40;;
50393;SDS011;36308;46.312;25.288;2022-07-23T04:03:08;11.23;;;6.50;;
50393;SDS011;36308;46.312;25.288;2022-07-23T04:05:34;16.40;;;6.15;;
50393;SDS011;36308;46.312;25.288;2022-07-23T04:07:59;8.65;;;6.75;;
50393;SDS011;36308;46.312;25.288;2022-07-23T04:10:25;10.18;;;6.75;;
50393;SDS011;36308;46.312;25.288;2022-07-23T04:12:50;11.80;;;6.78;;
50393;SDS011;36308;46.312;25.288;2022-07-23T04:15:16;10.73;;;6.85;;
50393;SDS011;36308;46.312;25.288;2022-07-23T04:17:41;12.80;;;8.20;;
50393;SDS011;36308;46.312;25.288;2022-07-23T04:20:08;11.30;;;7.07;;
50393;SDS011;36308;46.312;25.288;2022-07-23T04:22:35;14.40;;;7.20;;
50393;SDS011;36308;46.312;25.288;2022-07-23T04:25:00;11.57;;;7.57;;
50393;SDS011;36308;46.312;25.288;2022-07-23T04:27:26;10.30;;;7.70;;
50393;SDS011;36308;46.312;25.288;2022-07-23T04:29:51;12.63;;;7.53;;
50393;SDS011;36308;46.312;25.288;2022-07-23T04:32:17;17.45;;;8.38;;
50393;SDS011;36308;46.312;25.288;2022-07-23T04:34:42;10.35;;;7.78;;
50393;SDS011;36308;46.312;25.288;2022-07-23T04:37:08;13.50;;;8.13;;
50393;SDS011;36308;46.312;25.288;2022-07-23T04:39:33;14.63;;;9.35;;
50393;SDS011;36308;46.312;25.288;2022-07-23T04:41:58;15.60;;;10.60;;
50393;SDS011;36308;46.312;25.288;2022-07-23T04:44:24;14.48;;;10.00;;
50393;SDS011;36308;46.312;25.288;2022-07-23T04:46:49;14.40;;;8.65;;
50393;SDS011;36308;46.312;25.288;2022-07-23T04:49:15;11.55;;;7.70;;
50393;SDS011;36308;46.312;25.288;2022-07-23T04:51:40;12.05;;;7.72;;
50393;SDS011;36308;46.312;25.288;2022-07-23T04:54:05;12.00;;;8.65;;
50393;SDS011;36308;46.312;25.288;2022-07-23T04:56:31;18.63;;;8.63;;
50393;SDS011;36308;46.312;25.288;2022-07-23T04:58:56;11.68;;;8.43;;
50393;SDS011;36308;46.312;25.288;2022-07-23T05:01:22;13.88;;;8.10;;
50393;SDS011;36308;46.312;25.288;2022-07-23T05:03:47;11.98;;;7.40;;
50393;SDS011;36308;46.312;25.288;2022-07-23T05:06:13;9.77;;;7.50;;
50393;SDS011;36308;46.312;25.288;2022-07-23T05:08:39;11.60;;;8.63;;
50393;SDS011;36308;46.312;25.288;2022-07-23T05:11:05;11.77;;;7.30;;
50393;SDS011;36308;46.312;25.288;2022-07-23T05:13:30;12.50;;;7.80;;
50393;SDS011;36308;46.312;25.288;2022-07-23T05:15:56;15.65;;;8.82;;
50393;SDS011;36308;46.312;25.288;2022-07-23T05:18:21;10.93;;;7.45;;
50393;SDS011;36308;46.312;25.288;2022-07-23T05:20:47;10.18;;;6.82;;
50393;SDS011;36308;46.312;25.288;2022-07-23T05:23:12;11.40;;;7.68;;
50393;SDS011;36308;46.312;25.288;2022-07-23T05:25:38;12.05;;;8.35;;
50393;SDS011;36308;46.312;25.288;2022-07-23T05:28:04;14.20;;;9.70;;
50393;SDS011;36308;46.312;25.288;2022-07-23T05:30:30;17.70;;;9.88;;
50393;SDS011;36308;46.312;25.288;2022-07-23T05:32:55;15.02;;;10.43;;
50393;SDS011;36308;46.312;25.288;2022-07-23T05:35:20;13.68;;;9.38;;
50393;SDS011;36308;46.312;25.288;2022-07-23T05:37:46;15.57;;;9.48;;
50393;SDS011;36308;46.312;25.288;2022-07-23T05:40:11;18.02;;;9.20;;
50393;SDS011;36308;46.312;25.288;2022-07-23T05:42:38;16.73;;;9.98;;
50393;SDS011;36308;46.312;25.288;2022-07-23T05:45:05;15.77;;;9.13;;
50393;SDS011;36308;46.312;25.288;2022-07-23T05:47:43;13.88;;;8.55;;
50393;SDS011;36308;46.312;25.288;2022-07-23T05:50:11;17.15;;;8.30;;
50393;SDS011;36308;46.312;25.288;2022-07-23T05:52:37;17.00;;;8.10;;
50393;SDS011;36308;46.312;25.288;2022-07-23T05:55:03;12.73;;;7.85;;
50393;SDS011;36308;46.312;25.288;2022-07-23T05:57:29;14.35;;;8.25;;
50393;SDS011;36308;46.312;25.288;2022-07-23T05:59:54;15.07;;;7.75;;
50393;SDS011;36308;46.312;25.288;2022-07-23T06:02:20;14.80;;;7.82;;
50393;SDS011;36308;46.312;25.288;2022-07-23T06:04:45;12.43;;;7.75;;
50393;SDS011;36308;46.312;25.288;2022-07-23T06:07:11;10.75;;;7.43;;
50393;SDS011;36308;46.312;25.288;2022-07-23T06:09:36;14.13;;;7.68;;
50393;SDS011;36308;46.312;25.288;2022-07-23T06:12:02;12.43;;;8.05;;
50393;SDS011;36308;46.312;25.288;2022-07-23T06:14:27;16.85;;;7.65;;
50393;SDS011;36308;46.312;25.288;2022-07-23T06:16:53;13.10;;;8.33;;
50393;SDS011;36308;46.312;25.288;2022-07-23T06:19:18;17.02;;;8.13;;
50393;SDS011;36308;46.312;25.288;2022-07-23T06:21:44;12.75;;;7.80;;
50393;SDS011;36308;46.312;25.288;2022-07-23T06:24:09;12.75;;;7.95;;
50393;SDS011;36308;46.312;25.288;2022-07-23T06:26:34;14.90;;;7.97;;
50393;SDS011;36308;46.312;25.288;2022-07-23T06:29:00;15.27;;;7.07;;
50393;SDS011;36308;46.312;25.288;2022-07-23T06:31:26;13.02;;;7.20;;
50393;SDS011;36308;46.312;25.288;2022-07-23T06:33:51;10.52;;;6.72;;
50393;SDS011;36308;46.312;25.288;2022-07-23T06:36:17;10.20;;;6.43;;
50393;SDS011;36308;46.312;25.288;2022-07-23T06:38:42;9.65;;;6.75;;
50393;SDS011;36308;46.312;25.288;2022-07-23T06:41:08;11.63;;;6.85;;
50393;SDS011;36308;46.312;25.288;2022-07-23T06:43:34;13.18;;;6.85;;
50393;SDS011;36308;46.312;25.288;2022-07-23T06:45:59;12.80;;;6.57;;
50393;SDS011;36308;46.312;25.288;2022-07-23T06:48:25;9.98;;;6.00;;
50393;SDS011;36308;46.312;25.288;2022-07-23T06:50:50;10.77;;;6.53;;
50393;SDS011;36308;46.312;25.288;2022-07-23T06:53:17;11.38;;;6.55;;
50393;SDS011;36308;46.312;25.288;2022-07-23T06:55:43;12.57;;;6.60;;
50393;SDS011;36308;46.312;25.288;2022-07-23T06:58:08;9.23;;;5.55;;
50393;SDS011;36308;46.312;25.288;2022-07-23T07:00:35;8.15;;;5.60;;
50393;SDS011;36308;46.312;25.288;2022-07-23T07:03:01;11.15;;;6.07;;
50393;SDS011;36308;46.312;25.288;2022-07-23T07:05:26;14.00;;;5.43;;
50393;SDS011;36308;46.312;25.288;2022-07-23T07:07:53;12.80;;;5.90;;
50393;SDS011;36308;46.312;25.288;2022-07-23T07:10:19;15.10;;;5.43;;
50393;SDS011;36308;46.312;25.288;2022-07-23T07:12:45;8.75;;;5.03;;
50393;SDS011;36308;46.312;25.288;2022-07-23T07:15:10;13.38;;;5.38;;
50393;SDS011;36308;46.312;25.288;2022-07-23T07:17:37;10.23;;;5.00;;
50393;SDS011;36308;46.312;25.288;2022-07-23T07:20:02;10.93;;;4.53;;
50393;SDS011;36308;46.312;25.288;2022-07-23T07:22:29;11.40;;;4.68;;
50393;SDS011;36308;46.312;25.288;2022-07-23T07:24:55;7.85;;;4.75;;
50393;SDS011;36308;46.312;25.288;2022-07-23T07:27:20;10.63;;;4.43;;
50393;SDS011;36308;46.312;25.288;2022-07-23T07:29:45;13.65;;;4.57;;
50393;SDS011;36308;46.312;25.288;2022-07-23T07:32:11;11.73;;;4.90;;
50393;SDS011;36308;46.312;25.288;2022-07-23T07:34:36;9.77;;;5.03;;
50393;SDS011;36308;46.312;25.288;2022-07-23T07:37:02;11.75;;;5.07;;
50393;SDS011;36308;46.312;25.288;2022-07-23T07:39:27;9.00;;;4.25;;
50393;SDS011;36308;46.312;25.288;2022-07-23T07:41:53;10.60;;;4.28;;
50393;SDS011;36308;46.312;25.288;2022-07-23T07:44:18;7.90;;;4.18;;
50393;SDS011;36308;46.312;25.288;2022-07-23T07:46:44;7.65;;;4.55;;
50393;SDS011;36308;46.312;25.288;2022-07-23T07:49:09;8.48;;;4.25;;
50393;SDS011;36308;46.312;25.288;2022-07-23T07:51:35;7.90;;;4.60;;
50393;SDS011;36308;46.312;25.288;2022-07-23T07:54:00;9.88;;;4.20;;
50393;SDS011;36308;46.312;25.288;2022-07-23T07:56:26;11.55;;;4.45;;
50393;SDS011;36308;46.312;25.288;2022-07-23T07:58:51;10.63;;;4.55;;
50393;SDS011;36308;46.312;25.288;2022-07-23T08:01:17;12.95;;;5.05;;
50393;SDS011;36308;46.312;25.288;2022-07-23T08:03:44;10.20;;;4.18;;
50393;SDS011;36308;46.312;25.288;2022-07-23T08:06:10;24.30;;;4.50;;
50393;SDS011;36308;46.312;25.288;2022-07-23T08:08:35;9.65;;;4.30;;
50393;SDS011;36308;46.312;25.288;2022-07-23T08:11:01;12.07;;;4.13;;
50393;SDS011;36308;46.312;25.288;2022-07-23T08:13:26;9.82;;;4.50;;
50393;SDS011;36308;46.312;25.288;2022-07-23T08:15:51;9.70;;;4.70;;
50393;SDS011;36308;46.312;25.288;2022-07-23T08:18:18;9.55;;;4.72;;
50393;SDS011;36308;46.312;25.288;2022-07-23T08:20:44;10.20;;;4.30;;
50393;SDS011;36308;46.312;25.288;2022-07-23T08:23:10;7.47;;;4.20;;
50393;SDS011;36308;46.312;25.288;2022-07-23T08:25:36;11.30;;;4.43;;
50393;SDS011;36308;46.312;25.288;2022-07-23T08:28:07;7.13;;;4.07;;
50393;SDS011;36308;46.312;25.288;2022-07-23T08:30:34;8.25;;;4.30;;
50393;SDS011;36308;46.312;25.288;2022-07-23T08:33:09;7.85;;;3.72;;
50393;SDS011;36308;46.312;25.288;2022-07-23T08:35:38;10.90;;;4.28;;
50393;SDS011;36308;46.312;25.288;2022-07-23T08:38:06;8.88;;;4.13;;
50393;SDS011;36308;46.312;25.288;2022-07-23T08:40:36;7.85;;;4.75;;
50393;SDS011;36308;46.312;25.288;2022-07-23T08:43:04;9.43;;;4.43;;
50393;SDS011;36308;46.312;25.288;2022-07-23T08:45:31;8.00;;;4.45;;
50393;SDS011;36308;46.312;25.288;2022-07-23T08:48:07;8.20;;;4.03;;
50393;SDS011;36308;46.312;25.288;2022-07-23T08:50:36;8.55;;;4.53;;
50393;SDS011;36308;46.312;25.288;2022-07-23T08:53:02;8.05;;;3.85;;
50393;SDS011;36308;46.312;25.288;2022-07-23T08:55:31;8.68;;;5.15;;
50393;SDS011;36308;46.312;25.288;2022-07-23T08:57:56;7.63;;;4.35;;
50393;SDS011;36308;46.312;25.288;2022-07-23T09:00:22;9.68;;;4.65;;
50393;SDS011;36308;46.312;25.288;2022-07-23T09:02:48;12.25;;;4.75;;
50393;SDS011;36308;46.312;25.288;2022-07-23T09:08:03;9.98;;;4.45;;
50393;SDS011;36308;46.312;25.288;2022-07-23T09:10:29;10.30;;;5.10;;
50393;SDS011;36308;46.312;25.288;2022-07-23T09:12:54;10.85;;;4.80;;
50393;SDS011;36308;46.312;25.288;2022-07-23T09:15:20;10.63;;;4.78;;
50393;SDS011;36308;46.312;25.288;2022-07-23T09:17:45;9.30;;;5.13;;
50393;SDS011;36308;46.312;25.288;2022-07-23T09:20:11;10.57;;;4.45;;
50393;SDS011;36308;46.312;25.288;2022-07-23T09:22:39;9.60;;;4.60;;
50393;SDS011;36308;46.312;25.288;2022-07-23T09:25:12;9.80;;;5.22;;
50393;SDS011;36308;46.312;25.288;2022-07-23T09:30:26;11.50;;;5.03;;
50393;SDS011;36308;46.312;25.288;2022-07-23T09:35:46;11.00;;;4.88;;
50393;SDS011;36308;46.312;25.288;2022-07-23T09:38:12;9.30;;;5.03;;
50393;SDS011;36308;46.312;25.288;2022-07-23T09:40:39;8.57;;;4.63;;
50393;SDS011;36308;46.312;25.288;2022-07-23T09:43:04;7.80;;;3.97;;
50393;SDS011;36308;46.312;25.288;2022-07-23T09:45:30;8.68;;;4.75;;
50393;SDS011;36308;46.312;25.288;2022-07-23T09:48:15;7.53;;;4.70;;
50393;SDS011;36308;46.312;25.288;2022-07-23T09:50:42;11.50;;;4.88;;
50393;SDS011;36308;46.312;25.288;2022-07-23T09:53:08;9.88;;;4.78;;
50393;SDS011;36308;46.312;25.288;2022-07-23T09:55:34;7.20;;;4.68;;
50393;SDS011;36308;46.312;25.288;2022-07-23T09:58:02;9.25;;;4.60;;
50393;SDS011;36308;46.312;25.288;2022-07-23T10:00:29;8.93;;;5.13;;
50393;SDS011;36308;46.312;25.288;2022-07-23T10:02:56;10.05;;;4.70;;
50393;SDS011;36308;46.312;25.288;2022-07-23T10:05:24;11.00;;;5.10;;
50393;SDS011;36308;46.312;25.288;2022-07-23T10:07:50;8.95;;;4.50;;
50393;SDS011;36308;46.312;25.288;2022-07-23T10:10:16;11.93;;;5.70;;
50393;SDS011;36308;46.312;25.288;2022-07-23T10:12:45;10.00;;;5.35;;
50393;SDS011;36308;46.312;25.288;2022-07-23T10:15:30;8.00;;;5.22;;
50393;SDS011;36308;46.312;25.288;2022-07-23T10:17:56;11.93;;;5.10;;
50393;SDS011;36308;46.312;25.288;2022-07-23T10:20:21;8.45;;;4.93;;
50393;SDS011;36308;46.312;25.288;2022-07-23T10:25:32;9.00;;;5.32;;
50393;SDS011;36308;46.312;25.288;2022-07-23T10:28:33;10.35;;;5.50;;
50393;SDS011;36308;46.312;25.288;2022-07-23T10:36:11;10.73;;;4.65;;
50393;SDS011;36308;46.312;25.288;2022-07-23T10:41:33;10.70;;;5.72;;
50393;SDS011;36308;46.312;25.288;2022-07-23T10:44:09;8.38;;;5.00;;
50393;SDS011;36308;46.312;25.288;2022-07-23T10:46:46;7.70;;;4.80;;
50393;SDS011;36308;46.312;25.288;2022-07-23T10:49:40;6.03;;;4.45;;
50393;SDS011;36308;46.312;25.288;2022-07-23T10:54:40;7.47;;;4.90;;
50393;SDS011;36308;46.312;25.288;2022-07-23T10:57:07;8.80;;;4.50;;
50393;SDS011;36308;46.312;25.288;2022-07-23T11:02:40;7.70;;;4.57;;
50393;SDS011;36308;46.312;25.288;2022-07-23T11:07:34;8.38;;;4.68;;
50393;SDS011;36308;46.312;25.288;2022-07-23T11:10:01;8.15;;;4.63;;
50393;SDS011;36308;46.312;25.288;2022-07-23T11:17:28;7.75;;;4.95;;
50393;SDS011;36308;46.312;25.288;2022-07-23T11:25:11;10.32;;;4.82;;
50393;SDS011;36308;46.312;25.288;2022-07-23T11:27:46;7.45;;;4.47;;
50393;SDS011;36308;46.312;25.288;2022-07-23T11:32:50;9.90;;;4.60;;
50393;SDS011;36308;46.312;25.288;2022-07-23T11:35:26;7.38;;;4.35;;
50393;SDS011;36308;46.312;25.288;2022-07-23T11:40:46;8.00;;;5.00;;
50393;SDS011;36308;46.312;25.288;2022-07-23T11:43:15;9.30;;;4.90;;
50393;SDS011;36308;46.312;25.288;2022-07-23T11:45:43;8.07;;;4.85;;
50393;SDS011;36308;46.312;25.288;2022-07-23T11:48:23;11.32;;;5.50;;
50393;SDS011;36308;46.312;25.288;2022-07-23T11:50:53;6.70;;;4.57;;
50393;SDS011;36308;46.312;25.288;2022-07-23T11:53:23;6.40;;;4.68;;
50393;SDS011;36308;46.312;25.288;2022-07-23T11:55:53;7.38;;;4.68;;
50393;SDS011;36308;46.312;25.288;2022-07-23T11:58:20;9.30;;;4.88;;
50393;SDS011;36308;46.312;25.288;2022-07-23T12:00:46;10.57;;;5.43;;
50393;SDS011;36308;46.312;25.288;2022-07-23T12:03:11;9.43;;;5.30;;
50393;SDS011;36308;46.312;25.288;2022-07-23T12:05:37;10.77;;;4.75;;
50393;SDS011;36308;46.312;25.288;2022-07-23T12:08:07;6.22;;;4.22;;
50393;SDS011;36308;46.312;25.288;2022-07-23T12:10:36;10.05;;;4.82;;
50393;SDS011;36308;46.312;25.288;2022-07-23T12:13:04;7.07;;;4.70;;
50393;SDS011;36308;46.312;25.288;2022-07-23T12:15:33;6.75;;;5.05;;
50393;SDS011;36308;46.312;25.288;2022-07-23T12:18:03;6.33;;;4.13;;
50393;SDS011;36308;46.312;25.288;2022-07-23T12:20:31;7.53;;;4.47;;
50393;SDS011;36308;46.312;25.288;2022-07-23T12:23:00;11.75;;;4.25;;
50393;SDS011;36308;46.312;25.288;2022-07-23T12:25:38;9.57;;;4.18;;
50393;SDS011;36308;46.312;25.288;2022-07-23T12:28:06;7.20;;;4.28;;
50393;SDS011;36308;46.312;25.288;2022-07-23T12:33:14;7.35;;;4.70;;
50393;SDS011;36308;46.312;25.288;2022-07-23T12:35:46;5.80;;;3.97;;
50393;SDS011;36308;46.312;25.288;2022-07-23T12:38:19;9.85;;;4.65;;
50393;SDS011;36308;46.312;25.288;2022-07-23T12:40:53;9.93;;;4.75;;
50393;SDS011;36308;46.312;25.288;2022-07-23T12:43:21;7.15;;;3.72;;
50393;SDS011;36308;46.312;25.288;2022-07-23T12:48:21;6.93;;;4.68;;
50393;SDS011;36308;46.312;25.288;2022-07-23T12:50:50;8.70;;;4.45;;
50393;SDS011;36308;46.312;25.288;2022-07-23T12:53:42;6.57;;;4.35;;
50393;SDS011;36308;46.312;25.288;2022-07-23T12:56:13;7.15;;;4.30;;
50393;SDS011;36308;46.312;25.288;2022-07-23T12:58:40;8.60;;;4.63;;
50393;SDS011;36308;46.312;25.288;2022-07-23T13:03:54;10.57;;;4.93;;
50393;SDS011;36308;46.312;25.288;2022-07-23T13:06:46;7.60;;;4.50;;
50393;SDS011;36308;46.312;25.288;2022-07-23T13:09:25;8.93;;;4.22;;
50393;SDS011;36308;46.312;25.288;2022-07-23T13:11:52;8.35;;;4.35;;
50393;SDS011;36308;46.312;25.288;2022-07-23T13:14:19;8.02;;;4.32;;
50393;SDS011;36308;46.312;25.288;2022-07-23T13:16:46;7.40;;;4.95;;
50393;SDS011;36308;46.312;25.288;2022-07-23T13:19:12;9.27;;;4.93;;
50393;SDS011;36308;46.312;25.288;2022-07-23T13:21:38;9.13;;;4.38;;
50393;SDS011;36308;46.312;25.288;2022-07-23T13:24:05;6.85;;;4.13;;
50393;SDS011;36308;46.312;25.288;2022-07-23T13:26:31;6.97;;;3.85;;
50393;SDS011;36308;46.312;25.288;2022-07-23T13:28:56;8.23;;;4.32;;
50393;SDS011;36308;46.312;25.288;2022-07-23T13:31:23;7.28;;;3.67;;
50393;SDS011;36308;46.312;25.288;2022-07-23T13:33:48;8.48;;;4.53;;
50393;SDS011;36308;46.312;25.288;2022-07-23T13:36:14;7.20;;;4.13;;
50393;SDS011;36308;46.312;25.288;2022-07-23T13:38:39;7.65;;;3.97;;
50393;SDS011;36308;46.312;25.288;2022-07-23T13:41:05;7.72;;;4.10;;
50393;SDS011;36308;46.312;25.288;2022-07-23T13:43:31;6.80;;;3.80;;
50393;SDS011;36308;46.312;25.288;2022-07-23T13:45:57;11.20;;;4.07;;
50393;SDS011;36308;46.312;25.288;2022-07-23T13:48:23;6.03;;;4.20;;
50393;SDS011;36308;46.312;25.288;2022-07-23T13:50:49;5.53;;;3.38;;
50393;SDS011;36308;46.312;25.288;2022-07-23T13:53:17;7.63;;;3.70;;
50393;SDS011;36308;46.312;25.288;2022-07-23T13:55:50;5.90;;;4.13;;
50393;SDS011;36308;46.312;25.288;2022-07-23T13:58:17;6.93;;;4.20;;
50393;SDS011;36308;46.312;25.288;2022-07-23T14:00:44;9.95;;;4.28;;
50393;SDS011;36308;46.312;25.288;2022-07-23T14:03:11;6.57;;;4.57;;
50393;SDS011;36308;46.312;25.288;2022-07-23T14:05:37;9.85;;;4.63;;
50393;SDS011;36308;46.312;25.288;2022-07-23T14:08:03;10.07;;;4.75;;
50393;SDS011;36308;46.312;25.288;2022-07-23T14:10:29;9.07;;;4.72;;
50393;SDS011;36308;46.312;25.288;2022-07-23T14:12:54;8.30;;;4.70;;
50393;SDS011;36308;46.312;25.288;2022-07-23T14:15:22;6.93;;;4.30;;
50393;SDS011;36308;46.312;25.288;2022-07-23T14:17:49;7.05;;;4.20;;
50393;SDS011;36308;46.312;25.288;2022-07-23T14:20:14;7.32;;;4.50;;
50393;SDS011;36308;46.312;25.288;2022-07-23T14:22:40;7.07;;;4.50;;
50393;SDS011;36308;46.312;25.288;2022-07-23T14:25:06;11.13;;;5.40;;
50393;SDS011;36308;46.312;25.288;2022-07-23T14:27:33;12.20;;;4.78;;
50393;SDS011;36308;46.312;25.288;2022-07-23T14:29:58;6.68;;;3.85;;
50393;SDS011;36308;46.312;25.288;2022-07-23T14:32:24;10.07;;;4.38;;
50393;SDS011;36308;46.312;25.288;2022-07-23T14:34:50;7.20;;;4.25;;
50393;SDS011;36308;46.312;25.288;2022-07-23T14:37:16;7.18;;;4.25;;
50393;SDS011;36308;46.312;25.288;2022-07-23T14:39:42;6.65;;;3.97;;
50393;SDS011;36308;46.312;25.288;2022-07-23T14:42:09;7.03;;;3.92;;
50393;SDS011;36308;46.312;25.288;2022-07-23T14:44:35;7.15;;;4.07;;
50393;SDS011;36308;46.312;25.288;2022-07-23T14:47:01;9.38;;;4.60;;
50393;SDS011;36308;46.312;25.288;2022-07-23T14:49:29;8.30;;;4.13;;
50393;SDS011;36308;46.312;25.288;2022-07-23T14:51:55;7.45;;;4.28;;
50393;SDS011;36308;46.312;25.288;2022-07-23T14:54:21;24.83;;;4.45;;
50393;SDS011;36308;46.312;25.288;2022-07-23T14:56:46;8.27;;;4.68;;
50393;SDS011;36308;46.312;25.288;2022-07-23T14:59:12;9.23;;;5.13;;
50393;SDS011;36308;46.312;25.288;2022-07-23T15:01:38;8.15;;;4.47;;
50393;SDS011;36308;46.312;25.288;2022-07-23T15:04:04;6.93;;;4.05;;
50393;SDS011;36308;46.312;25.288;2022-07-23T15:06:30;8.38;;;4.35;;
50393;SDS011;36308;46.312;25.288;2022-07-23T15:08:56;6.78;;;4.45;;
50393;SDS011;36308;46.312;25.288;2022-07-23T15:11:21;6.22;;;4.10;;
50393;SDS011;36308;46.312;25.288;2022-07-23T15:13:47;9.82;;;4.82;;
50393;SDS011;36308;46.312;25.288;2022-07-23T15:16:12;8.05;;;4.60;;
50393;SDS011;36308;46.312;25.288;2022-07-23T15:18:38;6.45;;;4.25;;